sensor_id;sensor_type;location;lat;lon;timestamp;P1;durP1;ratioP1;P2;durP2;ratioP2
7215;SDS011;3649;48.798;9.798;2022-09-09T00:04:09;5.43;;;2.20;;
7215;SDS011;3649;48.798;9.798;2022-09-09T00:06:48;2.50;;;2.27;;
7215;SDS011;3649;48.798;9.798;2022-09-09T00:09:18;4.37;;;1.90;;
7215;SDS011;3649;48.798;9.798;2022-09-09T00:15:13;6.37;;;2.20;;
7215;SDS011;3649;48.798;9.798;2022-09-09T00:17:59;3.47;;;2.23;;
7215;SDS011;3649;48.798;9.798;2022-09-09T00:23:25;4.73;;;1.90;;
7215;SDS011;3649;48.798;9.798;2022-09-09T00:28:39;2.50;;;2.00;;
7215;SDS011;3649;48.798;9.798;2022-09-09T00:31:23;4.90;;;2.67;;
7215;SDS011;3649;48.798;9.798;2022-09-09T00:33:53;4.27;;;2.03;;
7215;SDS011;3649;48.798;9.798;2022-09-09T00:36:22;2.40;;;2.07;;
7215;SDS011;3649;48.798;9.798;2022-09-09T00:38:52;3.73;;;2.40;;
7215;SDS011;3649;48.798;9.798;2022-09-09T00:41:40;2.77;;;2.37;;
7215;SDS011;3649;48.798;9.798;2022-09-09T00:44:35;2.70;;;1.97;;
7215;SDS011;3649;48.798;9.798;2022-09-09T00:47:05;2.37;;;2.10;;
7215;SDS011;3649;48.798;9.798;2022-09-09T00:54:49;4.37;;;2.33;;
7215;SDS011;3649;48.798;9.798;2022-09-09T00:57:31;4.17;;;2.03;;
7215;SDS011;3649;48.798;9.798;2022-09-09T01:00:16;3.00;;;2.10;;
7215;SDS011;3649;48.798;9.798;2022-09-09T01:07:46;2.97;;;2.03;;
7215;SDS011;3649;48.798;9.798;2022-09-09T01:10:20;5.83;;;2.07;;
7215;SDS011;3649;48.798;9.798;2022-09-09T01:12:57;8.60;;;2.33;;
7215;SDS011;3649;48.798;9.798;2022-09-09T01:15:29;8.60;;;2.23;;
7215;SDS011;3649;48.798;9.798;2022-09-09T01:18:08;6.10;;;2.40;;
7215;SDS011;3649;48.798;9.798;2022-09-09T01:26:35;2.10;;;1.90;;
7215;SDS011;3649;48.798;9.798;2022-09-09T01:29:09;2.23;;;2.03;;
7215;SDS011;3649;48.798;9.798;2022-09-09T01:31:41;5.90;;;1.87;;
7215;SDS011;3649;48.798;9.798;2022-09-09T01:34:29;2.80;;;1.90;;
7215;SDS011;3649;48.798;9.798;2022-09-09T01:37:03;7.90;;;2.20;;
7215;SDS011;3649;48.798;9.798;2022-09-09T01:39:37;5.70;;;2.03;;
7215;SDS011;3649;48.798;9.798;2022-09-09T01:42:08;4.43;;;2.40;;
7215;SDS011;3649;48.798;9.798;2022-09-09T01:44:37;11.17;;;2.67;;
7215;SDS011;3649;48.798;9.798;2022-09-09T01:47:04;2.67;;;1.87;;
7215;SDS011;3649;48.798;9.798;2022-09-09T01:49:32;8.20;;;2.13;;
7215;SDS011;3649;48.798;9.798;2022-09-09T01:51:59;4.07;;;1.73;;
7215;SDS011;3649;48.798;9.798;2022-09-09T01:54:27;8.07;;;2.40;;
7215;SDS011;3649;48.798;9.798;2022-09-09T01:59:51;5.63;;;2.37;;
7215;SDS011;3649;48.798;9.798;2022-09-09T02:02:26;1.97;;;1.80;;
7215;SDS011;3649;48.798;9.798;2022-09-09T02:05:11;5.20;;;2.13;;
7215;SDS011;3649;48.798;9.798;2022-09-09T02:08:03;4.23;;;2.60;;
7215;SDS011;3649;48.798;9.798;2022-09-09T02:13:21;3.23;;;2.47;;
7215;SDS011;3649;48.798;9.798;2022-09-09T02:15:56;7.63;;;2.30;;
7215;SDS011;3649;48.798;9.798;2022-09-09T02:18:32;3.20;;;2.20;;
7215;SDS011;3649;48.798;9.798;2022-09-09T02:21:13;3.47;;;2.60;;
7215;SDS011;3649;48.798;9.798;2022-09-09T02:23:42;6.90;;;2.33;;
7215;SDS011;3649;48.798;9.798;2022-09-09T02:26:13;3.17;;;2.23;;
7215;SDS011;3649;48.798;9.798;2022-09-09T02:28:46;3.87;;;2.73;;
7215;SDS011;3649;48.798;9.798;2022-09-09T02:31:20;6.50;;;2.97;;
7215;SDS011;3649;48.798;9.798;2022-09-09T02:33:54;3.43;;;2.83;;
7215;SDS011;3649;48.798;9.798;2022-09-09T02:36:24;3.67;;;2.60;;
7215;SDS011;3649;48.798;9.798;2022-09-09T02:38:53;6.23;;;2.83;;
7215;SDS011;3649;48.798;9.798;2022-09-09T02:41:22;2.73;;;2.20;;
7215;SDS011;3649;48.798;9.798;2022-09-09T02:43:54;2.97;;;2.60;;
7215;SDS011;3649;48.798;9.798;2022-09-09T02:46:32;3.33;;;2.30;;
7215;SDS011;3649;48.798;9.798;2022-09-09T02:54:31;3.70;;;1.97;;
7215;SDS011;3649;48.798;9.798;2022-09-09T02:57:04;4.33;;;2.10;;
7215;SDS011;3649;48.798;9.798;2022-09-09T02:59:37;3.23;;;2.13;;
7215;SDS011;3649;48.798;9.798;2022-09-09T03:02:04;4.00;;;1.80;;
7215;SDS011;3649;48.798;9.798;2022-09-09T03:04:32;4.23;;;2.27;;
7215;SDS011;3649;48.798;9.798;2022-09-09T03:06:58;2.70;;;2.17;;
7215;SDS011;3649;48.798;9.798;2022-09-09T03:09:26;7.53;;;2.30;;
7215;SDS011;3649;48.798;9.798;2022-09-09T03:11:52;4.17;;;2.10;;
7215;SDS011;3649;48.798;9.798;2022-09-09T03:14:21;3.60;;;2.30;;
7215;SDS011;3649;48.798;9.798;2022-09-09T03:16:51;3.27;;;2.07;;
7215;SDS011;3649;48.798;9.798;2022-09-09T03:19:18;3.10;;;2.00;;
7215;SDS011;3649;48.798;9.798;2022-09-09T03:21:46;4.87;;;2.53;;
7215;SDS011;3649;48.798;9.798;2022-09-09T03:24:14;4.57;;;2.23;;
7215;SDS011;3649;48.798;9.798;2022-09-09T03:26:41;3.80;;;2.17;;
7215;SDS011;3649;48.798;9.798;2022-09-09T03:29:13;8.13;;;2.00;;
7215;SDS011;3649;48.798;9.798;2022-09-09T03:31:40;3.37;;;2.10;;
7215;SDS011;3649;48.798;9.798;2022-09-09T03:34:09;3.20;;;2.27;;
7215;SDS011;3649;48.798;9.798;2022-09-09T03:36:36;7.40;;;2.13;;
7215;SDS011;3649;48.798;9.798;2022-09-09T03:39:03;5.47;;;2.87;;
7215;SDS011;3649;48.798;9.798;2022-09-09T03:41:31;5.57;;;2.50;;
7215;SDS011;3649;48.798;9.798;2022-09-09T03:43:57;5.23;;;2.20;;
7215;SDS011;3649;48.798;9.798;2022-09-09T03:46:25;2.37;;;2.13;;
7215;SDS011;3649;48.798;9.798;2022-09-09T03:48:52;2.40;;;2.20;;
7215;SDS011;3649;48.798;9.798;2022-09-09T03:51:19;6.73;;;2.17;;
7215;SDS011;3649;48.798;9.798;2022-09-09T03:53:46;2.47;;;2.07;;
7215;SDS011;3649;48.798;9.798;2022-09-09T03:56:13;5.43;;;2.60;;
7215;SDS011;3649;48.798;9.798;2022-09-09T03:58:40;3.43;;;2.33;;
7215;SDS011;3649;48.798;9.798;2022-09-09T04:01:08;5.33;;;2.40;;
7215;SDS011;3649;48.798;9.798;2022-09-09T04:03:36;4.40;;;2.10;;
7215;SDS011;3649;48.798;9.798;2022-09-09T04:06:04;5.57;;;2.50;;
7215;SDS011;3649;48.798;9.798;2022-09-09T04:08:33;4.00;;;1.93;;
7215;SDS011;3649;48.798;9.798;2022-09-09T04:11:02;2.70;;;2.23;;
7215;SDS011;3649;48.798;9.798;2022-09-09T04:13:33;2.47;;;2.20;;
7215;SDS011;3649;48.798;9.798;2022-09-09T04:16:01;3.17;;;1.93;;
7215;SDS011;3649;48.798;9.798;2022-09-09T04:18:30;3.10;;;2.23;;
7215;SDS011;3649;48.798;9.798;2022-09-09T04:20:57;5.37;;;2.20;;
7215;SDS011;3649;48.798;9.798;2022-09-09T04:23:25;3.73;;;2.20;;
7215;SDS011;3649;48.798;9.798;2022-09-09T04:25:54;5.33;;;2.47;;
7215;SDS011;3649;48.798;9.798;2022-09-09T04:28:22;5.20;;;2.57;;
7215;SDS011;3649;48.798;9.798;2022-09-09T04:30:50;6.50;;;3.03;;
7215;SDS011;3649;48.798;9.798;2022-09-09T04:33:18;4.27;;;2.20;;
7215;SDS011;3649;48.798;9.798;2022-09-09T04:35:46;2.10;;;1.87;;
7215;SDS011;3649;48.798;9.798;2022-09-09T04:38:15;3.50;;;2.23;;
7215;SDS011;3649;48.798;9.798;2022-09-09T04:40:46;4.37;;;2.10;;
7215;SDS011;3649;48.798;9.798;2022-09-09T04:43:13;4.87;;;2.73;;
7215;SDS011;3649;48.798;9.798;2022-09-09T04:45:41;3.90;;;2.30;;
7215;SDS011;3649;48.798;9.798;2022-09-09T04:48:09;3.80;;;2.17;;
7215;SDS011;3649;48.798;9.798;2022-09-09T04:50:36;2.93;;;2.13;;
7215;SDS011;3649;48.798;9.798;2022-09-09T04:53:03;3.07;;;2.10;;
7215;SDS011;3649;48.798;9.798;2022-09-09T04:55:31;3.17;;;2.17;;
7215;SDS011;3649;48.798;9.798;2022-09-09T04:58:03;6.90;;;2.50;;
7215;SDS011;3649;48.798;9.798;2022-09-09T05:00:31;5.07;;;2.50;;
7215;SDS011;3649;48.798;9.798;2022-09-09T05:03:02;5.63;;;2.20;;
7215;SDS011;3649;48.798;9.798;2022-09-09T05:05:31;9.27;;;2.30;;
7215;SDS011;3649;48.798;9.798;2022-09-09T05:08:03;5.40;;;2.60;;
7215;SDS011;3649;48.798;9.798;2022-09-09T05:10:32;2.30;;;2.10;;
7215;SDS011;3649;48.798;9.798;2022-09-09T05:12:59;6.43;;;2.40;;
7215;SDS011;3649;48.798;9.798;2022-09-09T05:15:26;5.50;;;2.80;;
7215;SDS011;3649;48.798;9.798;2022-09-09T05:17:56;3.67;;;2.90;;
7215;SDS011;3649;48.798;9.798;2022-09-09T05:20:27;8.33;;;3.20;;
7215;SDS011;3649;48.798;9.798;2022-09-09T05:22:55;6.17;;;3.23;;
7215;SDS011;3649;48.798;9.798;2022-09-09T05:25:22;5.73;;;2.93;;
7215;SDS011;3649;48.798;9.798;2022-09-09T05:27:52;2.53;;;2.23;;
7215;SDS011;3649;48.798;9.798;2022-09-09T05:30:20;4.10;;;2.67;;
7215;SDS011;3649;48.798;9.798;2022-09-09T05:32:49;4.77;;;2.60;;
7215;SDS011;3649;48.798;9.798;2022-09-09T05:35:16;7.10;;;2.37;;
7215;SDS011;3649;48.798;9.798;2022-09-09T05:37:45;2.70;;;2.40;;
7215;SDS011;3649;48.798;9.798;2022-09-09T05:40:12;8.77;;;2.80;;
7215;SDS011;3649;48.798;9.798;2022-09-09T05:42:39;8.13;;;2.90;;
7215;SDS011;3649;48.798;9.798;2022-09-09T05:45:07;5.47;;;2.57;;
7215;SDS011;3649;48.798;9.798;2022-09-09T05:47:35;4.53;;;3.10;;
7215;SDS011;3649;48.798;9.798;2022-09-09T05:50:03;6.87;;;2.73;;
7215;SDS011;3649;48.798;9.798;2022-09-09T05:52:31;5.00;;;2.40;;
7215;SDS011;3649;48.798;9.798;2022-09-09T05:54:58;3.53;;;2.33;;
7215;SDS011;3649;48.798;9.798;2022-09-09T05:57:25;10.90;;;3.07;;
7215;SDS011;3649;48.798;9.798;2022-09-09T05:59:52;2.80;;;2.47;;
7215;SDS011;3649;48.798;9.798;2022-09-09T06:02:19;5.60;;;2.53;;
7215;SDS011;3649;48.798;9.798;2022-09-09T06:04:46;2.83;;;2.50;;
7215;SDS011;3649;48.798;9.798;2022-09-09T06:07:13;4.57;;;2.97;;
7215;SDS011;3649;48.798;9.798;2022-09-09T06:09:40;6.50;;;2.83;;
7215;SDS011;3649;48.798;9.798;2022-09-09T06:12:07;9.43;;;3.00;;
7215;SDS011;3649;48.798;9.798;2022-09-09T06:14:35;3.87;;;3.13;;
7215;SDS011;3649;48.798;9.798;2022-09-09T06:17:03;5.47;;;3.03;;
7215;SDS011;3649;48.798;9.798;2022-09-09T06:19:30;6.87;;;3.17;;
7215;SDS011;3649;48.798;9.798;2022-09-09T06:21:57;5.80;;;2.80;;
7215;SDS011;3649;48.798;9.798;2022-09-09T06:24:24;7.37;;;2.60;;
7215;SDS011;3649;48.798;9.798;2022-09-09T06:26:51;9.43;;;2.80;;
7215;SDS011;3649;48.798;9.798;2022-09-09T06:29:18;3.83;;;2.73;;
7215;SDS011;3649;48.798;9.798;2022-09-09T06:31:45;6.33;;;3.10;;
7215;SDS011;3649;48.798;9.798;2022-09-09T06:34:12;6.67;;;2.80;;
7215;SDS011;3649;48.798;9.798;2022-09-09T06:36:39;5.30;;;2.93;;
7215;SDS011;3649;48.798;9.798;2022-09-09T06:39:06;5.93;;;4.93;;
7215;SDS011;3649;48.798;9.798;2022-09-09T06:41:40;8.50;;;4.03;;
7215;SDS011;3649;48.798;9.798;2022-09-09T06:44:09;6.30;;;2.63;;
7215;SDS011;3649;48.798;9.798;2022-09-09T06:46:38;4.17;;;3.30;;
7215;SDS011;3649;48.798;9.798;2022-09-09T06:49:07;6.70;;;3.43;;
7215;SDS011;3649;48.798;9.798;2022-09-09T06:51:35;4.70;;;2.27;;
7215;SDS011;3649;48.798;9.798;2022-09-09T06:54:09;6.80;;;2.50;;
7215;SDS011;3649;48.798;9.798;2022-09-09T06:56:38;7.00;;;3.03;;
7215;SDS011;3649;48.798;9.798;2022-09-09T06:59:09;4.67;;;2.83;;
7215;SDS011;3649;48.798;9.798;2022-09-09T07:01:39;5.60;;;2.70;;
7215;SDS011;3649;48.798;9.798;2022-09-09T07:04:07;4.20;;;2.93;;
7215;SDS011;3649;48.798;9.798;2022-09-09T07:06:36;7.83;;;4.23;;
7215;SDS011;3649;48.798;9.798;2022-09-09T07:09:10;5.90;;;3.60;;
7215;SDS011;3649;48.798;9.798;2022-09-09T07:11:42;5.73;;;2.70;;
7215;SDS011;3649;48.798;9.798;2022-09-09T07:14:11;7.90;;;2.93;;
7215;SDS011;3649;48.798;9.798;2022-09-09T07:16:42;5.57;;;2.90;;
7215;SDS011;3649;48.798;9.798;2022-09-09T07:19:11;7.10;;;3.53;;
7215;SDS011;3649;48.798;9.798;2022-09-09T07:21:40;9.50;;;3.07;;
7215;SDS011;3649;48.798;9.798;2022-09-09T07:24:08;4.83;;;2.77;;
7215;SDS011;3649;48.798;9.798;2022-09-09T07:26:38;7.80;;;2.77;;
7215;SDS011;3649;48.798;9.798;2022-09-09T07:29:05;7.03;;;2.70;;
7215;SDS011;3649;48.798;9.798;2022-09-09T07:31:34;5.97;;;3.03;;
7215;SDS011;3649;48.798;9.798;2022-09-09T07:34:03;5.27;;;2.13;;
7215;SDS011;3649;48.798;9.798;2022-09-09T07:36:32;5.23;;;2.67;;
7215;SDS011;3649;48.798;9.798;2022-09-09T07:39:02;5.03;;;2.53;;
7215;SDS011;3649;48.798;9.798;2022-09-09T07:41:35;3.20;;;2.03;;
7215;SDS011;3649;48.798;9.798;2022-09-09T07:44:11;4.50;;;3.00;;
7215;SDS011;3649;48.798;9.798;2022-09-09T07:46:41;4.43;;;2.27;;
7215;SDS011;3649;48.798;9.798;2022-09-09T07:49:08;6.13;;;2.73;;
7215;SDS011;3649;48.798;9.798;2022-09-09T07:51:37;3.73;;;2.23;;
7215;SDS011;3649;48.798;9.798;2022-09-09T07:54:09;8.10;;;2.47;;
7215;SDS011;3649;48.798;9.798;2022-09-09T07:56:39;4.67;;;2.27;;
7215;SDS011;3649;48.798;9.798;2022-09-09T07:59:06;3.40;;;2.30;;
7215;SDS011;3649;48.798;9.798;2022-09-09T08:01:39;4.47;;;2.17;;
7215;SDS011;3649;48.798;9.798;2022-09-09T08:04:15;4.67;;;2.10;;
7215;SDS011;3649;48.798;9.798;2022-09-09T08:06:45;6.90;;;3.27;;
7215;SDS011;3649;48.798;9.798;2022-09-09T08:09:20;7.90;;;2.50;;
7215;SDS011;3649;48.798;9.798;2022-09-09T08:11:51;2.83;;;2.03;;
7215;SDS011;3649;48.798;9.798;2022-09-09T08:14:17;3.47;;;1.70;;
7215;SDS011;3649;48.798;9.798;2022-09-09T08:16:46;3.87;;;1.60;;
7215;SDS011;3649;48.798;9.798;2022-09-09T08:19:14;5.57;;;1.87;;
7215;SDS011;3649;48.798;9.798;2022-09-09T08:21:42;1.60;;;1.50;;
7215;SDS011;3649;48.798;9.798;2022-09-09T08:24:10;1.80;;;1.60;;
7215;SDS011;3649;48.798;9.798;2022-09-09T08:26:39;4.03;;;1.50;;
7215;SDS011;3649;48.798;9.798;2022-09-09T08:29:10;5.40;;;1.40;;
7215;SDS011;3649;48.798;9.798;2022-09-09T08:31:40;3.13;;;1.23;;
7215;SDS011;3649;48.798;9.798;2022-09-09T08:34:09;6.10;;;3.47;;
7215;SDS011;3649;48.798;9.798;2022-09-09T08:36:40;4.57;;;2.00;;
7215;SDS011;3649;48.798;9.798;2022-09-09T08:39:09;4.53;;;1.70;;
7215;SDS011;3649;48.798;9.798;2022-09-09T08:53:05;2.27;;;1.37;;
7215;SDS011;3649;48.798;9.798;2022-09-09T08:55:55;5.43;;;1.83;;
7215;SDS011;3649;48.798;9.798;2022-09-09T08:58:28;2.80;;;1.50;;
7215;SDS011;3649;48.798;9.798;2022-09-09T09:09:08;3.90;;;1.50;;
7215;SDS011;3649;48.798;9.798;2022-09-09T09:14:21;6.67;;;1.97;;
7215;SDS011;3649;48.798;9.798;2022-09-09T09:16:59;3.53;;;1.80;;
7215;SDS011;3649;48.798;9.798;2022-09-09T09:19:29;4.67;;;1.47;;
7215;SDS011;3649;48.798;9.798;2022-09-09T09:27:57;2.80;;;1.27;;
7215;SDS011;3649;48.798;9.798;2022-09-09T09:30:53;4.70;;;1.53;;
7215;SDS011;3649;48.798;9.798;2022-09-09T09:35:50;5.43;;;1.40;;
7215;SDS011;3649;48.798;9.798;2022-09-09T09:38:18;1.80;;;1.13;;
7215;SDS011;3649;48.798;9.798;2022-09-09T09:41:10;1.67;;;1.23;;
7215;SDS011;3649;48.798;9.798;2022-09-09T09:43:39;1.87;;;1.40;;
7215;SDS011;3649;48.798;9.798;2022-09-09T09:46:22;5.27;;;2.00;;
7215;SDS011;3649;48.798;9.798;2022-09-09T09:49:01;1.63;;;1.20;;
7215;SDS011;3649;48.798;9.798;2022-09-09T09:51:31;3.93;;;1.50;;
7215;SDS011;3649;48.798;9.798;2022-09-09T09:56:39;3.50;;;1.23;;
7215;SDS011;3649;48.798;9.798;2022-09-09T09:59:19;3.27;;;1.37;;
7215;SDS011;3649;48.798;9.798;2022-09-09T10:13:20;4.87;;;1.50;;
7215;SDS011;3649;48.798;9.798;2022-09-09T10:26:50;1.83;;;1.10;;
7215;SDS011;3649;48.798;9.798;2022-09-09T10:35:10;4.93;;;1.10;;
7215;SDS011;3649;48.798;9.798;2022-09-09T10:40:32;2.33;;;1.30;;
7215;SDS011;3649;48.798;9.798;2022-09-09T10:49:09;4.70;;;1.40;;
7215;SDS011;3649;48.798;9.798;2022-09-09T11:00:00;2.03;;;1.00;;
7215;SDS011;3649;48.798;9.798;2022-09-09T11:02:33;2.30;;;1.07;;
7215;SDS011;3649;48.798;9.798;2022-09-09T11:05:22;4.17;;;1.37;;
7215;SDS011;3649;48.798;9.798;2022-09-09T11:07:58;1.17;;;1.00;;
7215;SDS011;3649;48.798;9.798;2022-09-09T11:10:34;3.30;;;1.00;;
7215;SDS011;3649;48.798;9.798;2022-09-09T11:13:23;5.70;;;1.10;;
7215;SDS011;3649;48.798;9.798;2022-09-09T11:15:53;4.00;;;1.17;;
7215;SDS011;3649;48.798;9.798;2022-09-09T11:18:27;4.10;;;1.20;;
7215;SDS011;3649;48.798;9.798;2022-09-09T11:20:59;3.50;;;1.10;;
7215;SDS011;3649;48.798;9.798;2022-09-09T11:24:02;5.77;;;1.60;;
7215;SDS011;3649;48.798;9.798;2022-09-09T11:26:35;4.83;;;1.40;;
7215;SDS011;3649;48.798;9.798;2022-09-09T11:40:42;2.50;;;1.00;;
7215;SDS011;3649;48.798;9.798;2022-09-09T11:43:10;4.40;;;0.93;;
7215;SDS011;3649;48.798;9.798;2022-09-09T11:45:41;3.60;;;1.20;;
7215;SDS011;3649;48.798;9.798;2022-09-09T11:48:23;1.50;;;0.90;;
7215;SDS011;3649;48.798;9.798;2022-09-09T11:51:00;3.93;;;0.90;;
7215;SDS011;3649;48.798;9.798;2022-09-09T11:53:30;3.10;;;1.17;;
7215;SDS011;3649;48.798;9.798;2022-09-09T11:58:28;2.30;;;1.50;;
7215;SDS011;3649;48.798;9.798;2022-09-09T12:01:00;1.53;;;1.10;;
7215;SDS011;3649;48.798;9.798;2022-09-09T12:03:32;2.43;;;1.07;;
7215;SDS011;3649;48.798;9.798;2022-09-09T12:06:31;4.70;;;1.80;;
7215;SDS011;3649;48.798;9.798;2022-09-09T12:09:19;3.10;;;1.10;;
7215;SDS011;3649;48.798;9.798;2022-09-09T12:14:55;4.37;;;1.00;;
7215;SDS011;3649;48.798;9.798;2022-09-09T12:17:23;1.17;;;1.00;;
7215;SDS011;3649;48.798;9.798;2022-09-09T12:20:02;1.67;;;1.20;;
7215;SDS011;3649;48.798;9.798;2022-09-09T12:33:32;2.60;;;1.20;;
7215;SDS011;3649;48.798;9.798;2022-09-09T12:36:02;2.00;;;1.10;;
7215;SDS011;3649;48.798;9.798;2022-09-09T12:38:37;3.20;;;1.00;;
7215;SDS011;3649;48.798;9.798;2022-09-09T12:41:25;5.20;;;1.20;;
7215;SDS011;3649;48.798;9.798;2022-09-09T12:44:03;3.50;;;1.20;;
7215;SDS011;3649;48.798;9.798;2022-09-09T12:46:36;2.13;;;1.13;;
7215;SDS011;3649;48.798;9.798;2022-09-09T12:49:25;2.30;;;1.10;;
7215;SDS011;3649;48.798;9.798;2022-09-09T12:52:04;1.77;;;1.23;;
7215;SDS011;3649;48.798;9.798;2022-09-09T12:54:34;5.10;;;1.20;;
7215;SDS011;3649;48.798;9.798;2022-09-09T12:57:03;4.93;;;1.20;;
7215;SDS011;3649;48.798;9.798;2022-09-09T12:59:38;1.50;;;1.03;;
7215;SDS011;3649;48.798;9.798;2022-09-09T13:02:25;3.27;;;1.50;;
7215;SDS011;3649;48.798;9.798;2022-09-09T13:04:52;4.93;;;1.70;;
7215;SDS011;3649;48.798;9.798;2022-09-09T13:07:21;6.77;;;1.40;;
7215;SDS011;3649;48.798;9.798;2022-09-09T13:09:48;1.87;;;1.00;;
7215;SDS011;3649;48.798;9.798;2022-09-09T13:12:17;3.60;;;1.20;;
7215;SDS011;3649;48.798;9.798;2022-09-09T13:14:55;5.17;;;1.33;;
7215;SDS011;3649;48.798;9.798;2022-09-09T13:17:24;4.20;;;1.40;;
7215;SDS011;3649;48.798;9.798;2022-09-09T13:19:55;2.57;;;1.40;;
7215;SDS011;3649;48.798;9.798;2022-09-09T13:22:56;4.07;;;1.37;;
7215;SDS011;3649;48.798;9.798;2022-09-09T13:25:26;4.83;;;1.37;;
7215;SDS011;3649;48.798;9.798;2022-09-09T13:27:56;2.17;;;1.27;;
7215;SDS011;3649;48.798;9.798;2022-09-09T13:38:24;1.30;;;0.93;;
7215;SDS011;3649;48.798;9.798;2022-09-09T13:40:57;1.50;;;0.83;;
7215;SDS011;3649;48.798;9.798;2022-09-09T13:43:36;3.33;;;0.93;;
7215;SDS011;3649;48.798;9.798;2022-09-09T13:51:44;3.63;;;1.20;;
7215;SDS011;3649;48.798;9.798;2022-09-09T13:54:14;4.90;;;0.90;;
7215;SDS011;3649;48.798;9.798;2022-09-09T13:56:42;1.73;;;0.90;;
7215;SDS011;3649;48.798;9.798;2022-09-09T13:59:14;0.97;;;0.70;;
7215;SDS011;3649;48.798;9.798;2022-09-09T14:01:46;1.43;;;0.90;;
7215;SDS011;3649;48.798;9.798;2022-09-09T14:04:14;3.40;;;0.93;;
7215;SDS011;3649;48.798;9.798;2022-09-09T14:06:41;2.60;;;1.27;;
7215;SDS011;3649;48.798;9.798;2022-09-09T14:09:11;2.77;;;1.10;;
7215;SDS011;3649;48.798;9.798;2022-09-09T14:11:39;2.13;;;1.00;;
7215;SDS011;3649;48.798;9.798;2022-09-09T14:14:06;2.27;;;1.50;;
7215;SDS011;3649;48.798;9.798;2022-09-09T14:16:33;1.70;;;0.93;;
7215;SDS011;3649;48.798;9.798;2022-09-09T14:19:00;2.67;;;1.00;;
7215;SDS011;3649;48.798;9.798;2022-09-09T14:21:28;2.00;;;0.90;;
7215;SDS011;3649;48.798;9.798;2022-09-09T14:23:55;1.33;;;0.93;;
7215;SDS011;3649;48.798;9.798;2022-09-09T14:26:24;3.07;;;1.00;;
7215;SDS011;3649;48.798;9.798;2022-09-09T14:28:51;1.43;;;0.83;;
7215;SDS011;3649;48.798;9.798;2022-09-09T14:31:30;1.77;;;0.77;;
7215;SDS011;3649;48.798;9.798;2022-09-09T14:33:57;5.00;;;1.00;;
7215;SDS011;3649;48.798;9.798;2022-09-09T14:36:25;2.47;;;1.23;;
7215;SDS011;3649;48.798;9.798;2022-09-09T14:38:52;1.63;;;0.93;;
7215;SDS011;3649;48.798;9.798;2022-09-09T14:41:19;2.10;;;0.90;;
7215;SDS011;3649;48.798;9.798;2022-09-09T14:43:48;1.57;;;0.90;;
7215;SDS011;3649;48.798;9.798;2022-09-09T14:46:18;2.37;;;1.30;;
7215;SDS011;3649;48.798;9.798;2022-09-09T14:48:50;4.53;;;1.20;;
7215;SDS011;3649;48.798;9.798;2022-09-09T14:51:20;1.50;;;1.00;;
7215;SDS011;3649;48.798;9.798;2022-09-09T14:53:51;1.60;;;1.00;;
7215;SDS011;3649;48.798;9.798;2022-09-09T14:56:25;0.60;;;0.60;;
7215;SDS011;3649;48.798;9.798;2022-09-09T14:58:54;2.83;;;1.00;;
7215;SDS011;3649;48.798;9.798;2022-09-09T15:01:21;2.50;;;1.10;;
7215;SDS011;3649;48.798;9.798;2022-09-09T15:03:54;0.93;;;0.80;;
7215;SDS011;3649;48.798;9.798;2022-09-09T15:06:22;2.17;;;0.90;;
7215;SDS011;3649;48.798;9.798;2022-09-09T15:08:49;2.03;;;0.70;;
7215;SDS011;3649;48.798;9.798;2022-09-09T15:11:18;1.60;;;1.10;;
7215;SDS011;3649;48.798;9.798;2022-09-09T15:13:46;0.90;;;0.70;;
7215;SDS011;3649;48.798;9.798;2022-09-09T15:16:14;0.97;;;0.80;;
7215;SDS011;3649;48.798;9.798;2022-09-09T15:18:43;2.63;;;1.00;;
7215;SDS011;3649;48.798;9.798;2022-09-09T15:21:15;1.30;;;0.87;;
7215;SDS011;3649;48.798;9.798;2022-09-09T15:23:44;2.83;;;0.77;;
7215;SDS011;3649;48.798;9.798;2022-09-09T15:26:13;4.83;;;1.00;;
7215;SDS011;3649;48.798;9.798;2022-09-09T15:28:41;1.23;;;0.90;;
7215;SDS011;3649;48.798;9.798;2022-09-09T15:33:50;1.93;;;0.90;;
7215;SDS011;3649;48.798;9.798;2022-09-09T15:36:24;1.13;;;0.80;;
7215;SDS011;3649;48.798;9.798;2022-09-09T15:38:52;4.07;;;0.80;;
7215;SDS011;3649;48.798;9.798;2022-09-09T15:41:19;0.83;;;0.70;;
7215;SDS011;3649;48.798;9.798;2022-09-09T15:43:48;2.83;;;0.87;;
7215;SDS011;3649;48.798;9.798;2022-09-09T15:48:43;2.37;;;0.90;;
7215;SDS011;3649;48.798;9.798;2022-09-09T15:51:14;2.43;;;1.20;;
7215;SDS011;3649;48.798;9.798;2022-09-09T15:54:01;2.57;;;1.00;;
7215;SDS011;3649;48.798;9.798;2022-09-09T15:56:28;2.37;;;0.80;;
7215;SDS011;3649;48.798;9.798;2022-09-09T15:58:59;1.00;;;0.80;;
7215;SDS011;3649;48.798;9.798;2022-09-09T16:01:27;1.77;;;0.93;;
7215;SDS011;3649;48.798;9.798;2022-09-09T16:03:54;2.93;;;1.00;;
7215;SDS011;3649;48.798;9.798;2022-09-09T16:06:23;2.83;;;0.90;;
7215;SDS011;3649;48.798;9.798;2022-09-09T16:08:52;2.77;;;0.83;;
7215;SDS011;3649;48.798;9.798;2022-09-09T16:11:24;2.03;;;0.80;;
7215;SDS011;3649;48.798;9.798;2022-09-09T16:13:53;3.43;;;0.90;;
7215;SDS011;3649;48.798;9.798;2022-09-09T16:16:22;0.93;;;0.77;;
7215;SDS011;3649;48.798;9.798;2022-09-09T16:18:51;1.50;;;1.00;;
7215;SDS011;3649;48.798;9.798;2022-09-09T16:21:27;1.83;;;0.77;;
7215;SDS011;3649;48.798;9.798;2022-09-09T16:23:56;2.13;;;1.00;;
7215;SDS011;3649;48.798;9.798;2022-09-09T16:26:29;2.00;;;1.00;;
7215;SDS011;3649;48.798;9.798;2022-09-09T16:28:57;2.73;;;0.80;;
7215;SDS011;3649;48.798;9.798;2022-09-09T16:31:25;2.50;;;0.93;;
7215;SDS011;3649;48.798;9.798;2022-09-09T16:33:54;1.33;;;1.00;;
7215;SDS011;3649;48.798;9.798;2022-09-09T16:36:22;4.03;;;0.90;;
7215;SDS011;3649;48.798;9.798;2022-09-09T16:38:57;2.37;;;1.20;;
7215;SDS011;3649;48.798;9.798;2022-09-09T16:41:26;0.70;;;0.70;;
7215;SDS011;3649;48.798;9.798;2022-09-09T16:43:55;3.50;;;1.10;;
7215;SDS011;3649;48.798;9.798;2022-09-09T16:46:24;2.27;;;1.00;;
7215;SDS011;3649;48.798;9.798;2022-09-09T16:48:55;1.90;;;0.90;;
7215;SDS011;3649;48.798;9.798;2022-09-09T16:51:28;1.40;;;0.70;;
7215;SDS011;3649;48.798;9.798;2022-09-09T16:54:00;1.60;;;1.50;;
7215;SDS011;3649;48.798;9.798;2022-09-09T16:56:30;3.40;;;0.90;;
7215;SDS011;3649;48.798;9.798;2022-09-09T16:59:01;0.83;;;0.80;;
7215;SDS011;3649;48.798;9.798;2022-09-09T17:01:30;0.90;;;0.70;;
7215;SDS011;3649;48.798;9.798;2022-09-09T17:03:59;1.07;;;0.90;;
7215;SDS011;3649;48.798;9.798;2022-09-09T17:06:28;1.40;;;0.70;;
7215;SDS011;3649;48.798;9.798;2022-09-09T17:08:57;1.33;;;0.90;;
7215;SDS011;3649;48.798;9.798;2022-09-09T17:11:25;0.70;;;0.70;;
7215;SDS011;3649;48.798;9.798;2022-09-09T17:13:53;1.13;;;0.97;;
7215;SDS011;3649;48.798;9.798;2022-09-09T17:16:21;1.43;;;0.80;;
7215;SDS011;3649;48.798;9.798;2022-09-09T17:18:50;2.17;;;1.10;;
7215;SDS011;3649;48.798;9.798;2022-09-09T17:21:19;2.90;;;0.80;;
7215;SDS011;3649;48.798;9.798;2022-09-09T17:23:47;3.67;;;1.23;;
7215;SDS011;3649;48.798;9.798;2022-09-09T17:26:15;1.67;;;1.00;;
7215;SDS011;3649;48.798;9.798;2022-09-09T17:28:44;2.53;;;0.83;;
7215;SDS011;3649;48.798;9.798;2022-09-09T17:31:12;0.70;;;0.70;;
7215;SDS011;3649;48.798;9.798;2022-09-09T17:33:42;1.90;;;1.10;;
7215;SDS011;3649;48.798;9.798;2022-09-09T17:36:13;1.73;;;0.93;;
7215;SDS011;3649;48.798;9.798;2022-09-09T17:38:40;3.60;;;1.07;;
7215;SDS011;3649;48.798;9.798;2022-09-09T17:41:15;2.07;;;0.90;;
7215;SDS011;3649;48.798;9.798;2022-09-09T17:43:44;1.23;;;1.07;;
7215;SDS011;3649;48.798;9.798;2022-09-09T17:46:16;5.57;;;1.47;;
7215;SDS011;3649;48.798;9.798;2022-09-09T17:48:49;1.70;;;0.97;;
7215;SDS011;3649;48.798;9.798;2022-09-09T17:51:18;0.80;;;0.80;;
7215;SDS011;3649;48.798;9.798;2022-09-09T17:53:50;1.40;;;0.90;;
7215;SDS011;3649;48.798;9.798;2022-09-09T17:56:18;0.70;;;0.70;;
7215;SDS011;3649;48.798;9.798;2022-09-09T17:58:47;3.23;;;0.73;;
7215;SDS011;3649;48.798;9.798;2022-09-09T18:01:18;1.60;;;0.90;;
7215;SDS011;3649;48.798;9.798;2022-09-09T18:03:47;3.57;;;0.90;;
7215;SDS011;3649;48.798;9.798;2022-09-09T18:06:17;1.07;;;0.63;;
7215;SDS011;3649;48.798;9.798;2022-09-09T18:08:49;1.77;;;0.80;;
7215;SDS011;3649;48.798;9.798;2022-09-09T18:11:18;1.53;;;0.90;;
7215;SDS011;3649;48.798;9.798;2022-09-09T18:13:47;2.17;;;0.80;;
7215;SDS011;3649;48.798;9.798;2022-09-09T18:16:15;2.33;;;0.93;;
7215;SDS011;3649;48.798;9.798;2022-09-09T18:18:44;1.10;;;0.70;;
7215;SDS011;3649;48.798;9.798;2022-09-09T18:21:11;1.80;;;0.77;;
7215;SDS011;3649;48.798;9.798;2022-09-09T18:23:40;0.80;;;0.80;;